Time;durP1;ratioP1;P1;durP2;ratioP2;P2;SDS_P1;SDS_P2;PMS_P1;PMS_P2;Temp;Humidity;BMP_temperature;BMP_pressure;BME280_temperature;BME280_humidity;BME280_pressure;Samples;Min_cycle;Max_cycle;Signal;HPM_P1;HPM_P2
2021/11/14 00:03:48;;;;;;;0.20;0.20;;;9.00;95.00;7.70;101621.00;;;;31227565;28;20075;-70
2021/11/14 00:18:51;;;;;;;0.20;0.20;;;8.80;95.70;7.60;101622.00;;;;31247578;28;20496;-70
2021/11/14 00:33:52;;;;;;;0.13;0.13;;;8.80;96.10;7.70;101626.00;;;;31253187;28;20155;-70
2021/11/14 00:48:55;;;;;;;0.20;0.20;;;8.90;96.10;7.80;101652.00;;;;31248109;28;20041;-70
2021/11/14 01:04:02;;;;;;;0.10;0.10;;;9.00;96.20;7.90;101659.00;;;;31250236;28;20125;-70
2021/11/14 01:19:04;;;;;;;0.20;0.20;;;9.10;96.00;8.00;101668.00;;;;31254512;28;20049;-70
2021/11/14 01:34:05;;;;;;;0.20;0.20;;;9.20;96.00;8.10;101682.00;;;;31243096;28;20131;-70
2021/11/14 01:49:07;;;;;;;0.20;0.20;;;9.30;95.90;8.20;101695.00;;;;31235282;28;20143;-70
2021/11/14 02:04:08;;;;;;;0.40;0.40;;;10.10;96.50;8.20;101705.00;;;;31252073;28;20045;-69
2021/11/14 02:19:09;;;;;;;0.20;0.20;;;9.40;95.90;8.30;101706.00;;;;31251537;28;20049;-70
2021/11/14 02:34:14;;;;;;;0.20;0.20;;;9.40;95.80;8.40;101714.00;;;;31247226;28;20132;-70
2021/11/14 02:49:15;;;;;;;0.40;0.40;;;9.40;96.60;8.40;101743.00;;;;31252494;28;20175;-69
2021/11/14 03:04:20;;;;;;;0.10;0.10;;;9.80;96.60;8.40;101750.00;;;;31236899;28;20041;-70
2021/11/14 03:19:22;;;;;;;0.32;0.32;;;9.50;96.00;8.50;101758.00;;;;31241017;28;20092;-70
2021/11/14 03:34:23;;;;;;;0.30;0.30;;;9.60;96.20;8.60;101772.00;;;;31231940;28;21031;-70
2021/11/14 03:49:27;;;;;;;0.40;0.40;;;9.60;97.00;8.70;101787.00;;;;31238389;28;20080;-70
2021/11/14 04:04:28;;;;;;;0.20;0.20;;;9.80;96.50;8.70;101816.00;;;;31231257;28;20045;-70
2021/11/14 04:19:29;;;;;;;0.20;0.20;;;9.80;96.60;8.80;101814.00;;;;31239591;28;20124;-70
2021/11/14 04:34:30;;;;;;;1.08;0.98;;;9.90;96.50;8.90;101823.00;;;;31222338;28;20060;-71
2021/11/14 04:49:37;;;;;;;0.15;0.15;;;9.90;96.80;8.90;101823.00;;;;31221805;28;20148;-70
2021/11/14 05:04:38;;;;;;;0.32;0.32;;;9.90;97.00;8.90;101827.00;;;;31235022;28;20045;-70
2021/11/14 05:19:39;;;;;;;0.10;0.10;;;9.90;96.20;8.90;101848.00;;;;31249399;28;20087;-70
2021/11/14 05:34:40;;;;;;;1.05;0.70;;;9.90;96.10;8.90;101875.00;;;;31269146;28;20295;-69
2021/11/14 05:49:42;;;;;;;0.30;0.30;;;9.90;96.60;8.90;101898.00;;;;31248635;28;20045;-69
2021/11/14 06:21:24;;;;;;;0.20;0.20;;;9.80;96.00;8.70;101923.00;;;;31119782;28;20056;-71
2021/11/14 06:36:33;;;;;;;0.65;0.65;;;9.70;96.00;8.60;101939.00;;;;31117857;28;20060;-71
2021/11/14 06:51:34;;;;;;;1.13;1.13;;;9.70;96.80;8.50;101966.00;;;;31141491;28;20798;-71
2021/11/14 07:06:37;;;;;;;0.20;0.20;;;9.60;95.90;8.40;102001.00;;;;31198345;28;20055;-70
2021/11/14 07:21:38;;;;;;;0.38;0.38;;;9.50;95.80;8.40;102030.00;;;;31257833;28;20535;-71
2021/11/14 07:36:41;;;;;;;0.20;0.20;;;9.50;96.10;8.50;102049.00;;;;31212085;28;20049;-70
2021/11/14 07:51:43;;;;;;;0.20;0.20;;;9.60;95.50;8.60;102060.00;;;;31251983;28;20176;-70
2021/11/14 08:06:45;;;;;;;0.47;0.47;;;9.60;95.50;8.70;102080.00;;;;31200982;28;20297;-70
2021/11/14 08:21:52;;;;;;;0.30;0.30;;;9.80;95.20;8.80;102099.00;;;;31242032;28;20045;-70
2021/11/14 08:37:02;;;;;;;0.20;0.20;;;10.00;95.60;9.00;102130.00;;;;31231903;28;20049;-69
2021/11/14 08:52:03;;;;;;;0.20;0.20;;;10.10;95.00;9.10;102155.00;;;;31220498;28;20049;-68
2021/11/14 09:07:07;;;;;;;0.20;0.20;;;10.10;95.20;9.10;102168.00;;;;31106627;28;20046;-68
2021/11/14 09:22:10;;;;;;;0.40;0.40;;;10.20;94.70;9.20;102184.00;;;;31005818;28;20047;-69
2021/11/14 09:37:12;;;;;;;0.17;0.17;;;10.30;94.60;9.30;102207.00;;;;31240479;28;20049;-69
2021/11/14 09:52:13;;;;;;;0.68;0.68;;;10.40;94.10;9.40;102221.00;;;;31238461;28;20152;-69
2021/11/14 10:07:19;;;;;;;0.20;0.20;;;10.50;94.10;9.50;102234.00;;;;31258104;28;20084;-69
2021/11/14 10:22:20;;;;;;;1.15;1.15;;;10.60;93.80;9.50;102235.00;;;;31239609;28;20064;-68
2021/11/14 10:37:23;;;;;;;0.10;0.10;;;10.70;93.10;9.80;102245.00;;;;31231831;28;20044;-68
2021/11/14 10:52:27;;;;;;;0.40;0.40;;;10.80;93.00;9.90;102255.00;;;;31260828;28;20499;-69
2021/11/14 11:07:29;;;;;;;0.30;0.30;;;10.90;93.00;10.00;102264.00;;;;31231598;28;20075;-68
2021/11/14 11:22:49;;;;;;;0.90;0.90;;;11.00;91.90;10.00;102287.00;;;;31255429;28;20072;-68
2021/11/14 11:37:51;;;;;;;0.10;0.10;;;11.00;92.30;10.10;102283.00;;;;31226629;28;20777;-69
2021/11/14 11:52:52;;;;;;;0.20;0.20;;;11.20;92.00;10.20;102288.00;;;;31255397;28;20048;-69
2021/11/14 12:07:59;;;;;;;0.20;0.20;;;11.10;91.70;10.10;102288.00;;;;31239342;28;20068;-70
2021/11/14 12:23:17;;;;;;;0.13;0.13;;;11.20;91.40;10.30;102291.00;;;;31246179;28;20774;-69
2021/11/14 12:38:27;;;;;;;0.20;0.20;;;11.20;90.70;10.20;102288.00;;;;31263791;28;20049;-69
2021/11/14 12:53:28;;;;;;;0.50;0.50;;;11.30;91.20;10.40;102298.00;;;;31273109;28;20551;-69
2021/11/14 13:08:29;;;;;;;0.10;0.10;;;11.40;91.00;10.50;102303.00;;;;31275238;28;20079;-69
2021/11/14 13:23:32;;;;;;;1.13;1.13;;;11.40;90.60;10.50;102316.00;;;;31266599;28;20526;-69
2021/11/14 13:38:42;;;;;;;0.63;0.63;;;11.40;91.00;10.20;102314.00;;;;31261994;28;20527;-69
2021/11/14 13:53:43;;;;;;;0.82;0.82;;;11.20;91.00;10.20;102300.00;;;;31268123;28;20048;-69
2021/11/14 14:08:46;;;;;;;0.10;0.10;;;11.20;91.00;10.30;102319.00;;;;31228320;28;20049;-69
2021/11/14 14:24:03;;;;;;;0.35;0.35;;;11.20;91.20;10.20;102334.00;;;;31243206;28;20064;-69
2021/11/14 14:39:11;;;;;;;0.28;0.28;;;11.10;91.20;10.10;102347.00;;;;31247383;28;20412;-69
2021/11/14 14:54:16;;;;;;;0.20;0.20;;;11.10;91.30;10.00;102359.00;;;;31228399;28;20064;-69
2021/11/14 15:09:26;;;;;;;2.83;2.58;;;11.00;91.40;10.00;102374.00;;;;31218736;28;20047;-69
2021/11/14 15:24:27;;;;;;;0.73;0.43;;;11.00;91.50;10.00;102368.00;;;;31248949;28;20053;-69
2021/11/14 15:39:28;;;;;;;0.10;0.10;;;11.00;91.50;9.90;102384.00;;;;31223909;28;20048;-69
2021/11/14 15:54:29;;;;;;;0.57;0.57;;;10.90;91.40;9.80;102402.00;;;;31209602;28;20345;-69
2021/11/14 16:09:30;;;;;;;0.80;0.80;;;11.00;91.60;9.70;102427.00;;;;31233669;28;20049;-68
2021/11/14 16:24:31;;;;;;;0.57;0.57;;;10.70;91.60;9.60;102436.00;;;;31220960;28;20110;-69
2021/11/14 16:39:37;;;;;;;0.50;0.50;;;10.60;91.50;9.60;102454.00;;;;31239306;28;20294;-69
2021/11/14 16:54:38;;;;;;;0.38;0.38;;;10.60;91.90;9.60;102469.00;;;;31224658;28;20046;-69
2021/11/14 17:09:39;;;;;;;0.80;0.67;;;10.60;91.40;9.60;102485.00;;;;31240881;28;20048;-69
2021/11/14 17:24:43;;;;;;;0.47;0.47;;;10.60;91.10;9.50;102491.00;;;;31245370;28;20389;-69
2021/11/14 17:39:44;;;;;;;0.20;0.20;;;10.50;91.00;9.50;102512.00;;;;31227135;28;20575;-69
2021/11/14 17:54:46;;;;;;;0.10;0.10;;;10.50;91.40;9.50;102529.00;;;;31233440;28;20520;-69
2021/11/14 18:09:49;;;;;;;0.20;0.20;;;;;9.40;102528.00;;;;31241427;28;20044;-69
2021/11/14 18:24:53;;;;;;;0.25;0.25;;;10.40;91.20;9.30;102520.00;;;;31251562;28;20490;-70
2021/11/14 18:39:54;;;;;;;0.30;0.30;;;10.40;91.20;9.20;102536.00;;;;31238501;28;20285;-69
2021/11/14 18:54:55;;;;;;;0.10;0.10;;;10.30;91.60;9.30;102560.00;;;;31244556;28;20053;-69
2021/11/14 19:09:59;;;;;;;0.17;0.17;;;10.20;91.00;9.20;102567.00;;;;31238537;28;20053;-69
2021/11/14 19:25:07;;;;;;;0.20;0.20;;;10.20;91.20;9.20;102562.00;;;;31241998;28;20512;-69
2021/11/14 19:40:10;;;;;;;0.28;0.28;;;10.20;91.20;9.20;102584.00;;;;31239597;28;20041;-69
2021/11/14 19:55:11;;;;;;;1.63;1.60;;;10.20;91.10;9.20;102593.00;;;;31238341;28;20691;-70
2021/11/14 20:10:16;;;;;;;0.30;0.30;;;10.20;91.50;9.10;102603.00;;;;31232955;28;20049;-69
2021/11/14 20:25:30;;;;;;;0.95;0.85;;;10.10;91.40;9.10;102601.00;;;;31244463;28;20071;-69
2021/11/14 20:40:33;;;;;;;0.47;0.47;;;10.10;91.10;9.00;102595.00;;;;31233855;28;20507;-70
2021/11/14 20:55:34;;;;;;;0.10;0.10;;;10.10;91.50;9.00;102603.00;;;;31264473;28;20049;-70
2021/11/14 21:10:37;;;;;;;0.30;0.30;;;9.90;91.10;8.80;102588.00;;;;31258066;28;20049;-70
2021/11/14 21:25:38;;;;;;;0.10;0.10;;;9.90;91.30;8.70;102602.00;;;;31251324;28;21111;-70
2021/11/14 21:40:49;;;;;;;1.95;1.33;;;9.80;91.50;8.70;102616.00;;;;31243749;28;20904;-69
2021/11/14 21:55:49;;;;;;;0.50;0.50;;;9.70;91.60;8.60;102601.00;;;;31221731;28;20159;-70
2021/11/14 22:10:54;;;;;;;0.73;0.73;;;9.60;91.70;8.50;102603.00;;;;31247464;28;20078;-69
2021/11/14 22:26:04;;;;;;;0.20;0.20;;;9.50;91.70;8.40;102600.00;;;;31231865;28;20308;-69
2021/11/14 22:41:08;;;;;;;0.20;0.20;;;9.50;91.70;8.40;102601.00;;;;31241387;28;20049;-69
2021/11/14 22:56:10;;;;;;;0.30;0.30;;;9.40;91.50;8.40;102618.00;;;;31240785;28;20560;-70
2021/11/14 23:11:18;;;;;;;0.10;0.10;;;9.50;91.90;8.30;102618.00;;;;31229081;28;20033;-70
2021/11/14 23:27:13;;;;;;;0.20;0.20;;;9.40;91.20;8.30;102625.00;;;;31245775;28;20056;-69
2021/11/14 23:42:28;;;;;;;0.20;0.20;;;9.40;91.40;8.30;102620.00;;;;31258324;28;20534;-70
2021/11/14 23:57:29;;;;;;;0.40;0.40;;;9.40;92.00;8.20;102611.00;;;;31217124;28;20535;-69
